createdAt,value
2019-03-10T00:00:38.800Z,101469.30
2019-03-10T00:03:08.306Z,101462.83
2019-03-10T00:05:37.736Z,101462.31
2019-03-10T00:08:08.155Z,101466.66
2019-03-10T00:10:37.768Z,101459.19
2019-03-10T00:13:07.191Z,101450.29
2019-03-10T00:15:36.773Z,101436.25
2019-03-10T00:18:06.378Z,101432.97
2019-03-10T00:20:35.881Z,101434.17
2019-03-10T00:23:05.457Z,101425.17
2019-03-10T00:25:34.942Z,101432.11
2019-03-10T00:28:04.530Z,101429.90
2019-03-10T00:30:34.094Z,101422.03
2019-03-10T00:33:03.652Z,101417.98
2019-03-10T00:35:33.091Z,101417.17
2019-03-10T00:38:02.625Z,101412.20
2019-03-10T00:40:56.959Z,101402.91
2019-03-10T00:44:21.859Z,101407.74
2019-03-10T00:47:38.517Z,101393.92
2019-03-10T00:50:29.229Z,101396.78
2019-03-10T00:53:02.426Z,101386.23
2019-03-10T00:55:31.952Z,101380.17
2019-03-10T00:58:01.530Z,101374.47
2019-03-10T01:00:31.038Z,101368.11
2019-03-10T01:03:00.494Z,101354.22
2019-03-10T01:05:30.072Z,101340.73
2019-03-10T01:07:59.616Z,101334.77
2019-03-10T01:10:29.456Z,101328.34
2019-03-10T01:12:59.041Z,101323.49
2019-03-10T01:15:28.816Z,101319.34
2019-03-10T01:17:59.895Z,101318.53
2019-03-10T01:20:29.875Z,101306.77
2019-03-10T01:22:59.312Z,101297.53
2019-03-10T01:25:28.868Z,101292.02
2019-03-10T01:27:58.356Z,101288.81
2019-03-10T01:30:29.273Z,101276.30
2019-03-10T01:33:21.082Z,101276.16
2019-03-10T01:35:50.512Z,101268.50
2019-03-10T01:38:20.009Z,101260.68
2019-03-10T01:40:49.498Z,101251.02
2019-03-10T01:43:18.933Z,101237.96
2019-03-10T01:45:48.358Z,101224.92
2019-03-10T01:48:17.807Z,101219.59
2019-03-10T01:50:47.225Z,101209.20
2019-03-10T01:53:25.320Z,101197.18
2019-03-10T01:55:47.792Z,101191.95
2019-03-10T01:58:17.204Z,101174.64
2019-03-10T02:00:47.068Z,101173.05
2019-03-10T02:03:16.746Z,101156.03
2019-03-10T02:05:46.136Z,101144.98
2019-03-10T02:08:15.648Z,101124.46
2019-03-10T02:10:45.059Z,101106.28
2019-03-10T02:13:14.592Z,101099.53
2019-03-10T02:15:44.369Z,101087.63
2019-03-10T02:18:13.791Z,101069.86
2019-03-10T02:20:43.600Z,101036.56
2019-03-10T02:23:13.023Z,101017.49
2019-03-10T02:25:42.463Z,101019.13
2019-03-10T02:28:11.889Z,101003.63
2019-03-10T02:30:41.473Z,100986.33
2019-03-10T02:33:10.887Z,100966.88
2019-03-10T02:35:40.297Z,100949.49
2019-03-10T02:38:09.728Z,100935.38
2019-03-10T02:40:39.133Z,100909.50
2019-03-10T02:43:09.096Z,100892.48
2019-03-10T02:45:38.590Z,100873.56
2019-03-10T02:48:08.065Z,100877.19
2019-03-10T02:50:37.566Z,100868.68
2019-03-10T02:53:07.050Z,100849.66
2019-03-10T02:55:36.780Z,100836.05
2019-03-10T02:58:06.207Z,100834.13
2019-03-10T03:00:35.678Z,100828.08
2019-03-10T03:03:05.261Z,100818.02
2019-03-10T03:05:34.678Z,100806.51
2019-03-10T03:08:04.172Z,100786.11
2019-03-10T03:10:34.011Z,100778.02
2019-03-10T03:13:03.414Z,100754.30
2019-03-10T03:15:32.922Z,100728.97
2019-03-10T03:18:02.365Z,100719.37
2019-03-10T03:20:31.787Z,100705.82
2019-03-10T03:23:01.217Z,100694.51
2019-03-10T03:25:30.659Z,100689.67
2019-03-10T03:28:00.073Z,100670.52
2019-03-10T03:30:29.593Z,100656.09
2019-03-10T03:32:59.365Z,100643.12
2019-03-10T03:35:50.886Z,100641.34
2019-03-10T03:38:46.695Z,100638.37
2019-03-10T03:41:25.006Z,100638.73
2019-03-10T03:43:54.489Z,100630.48
2019-03-10T03:46:23.980Z,100616.41
2019-03-10T03:48:53.370Z,100617.29
2019-03-10T03:51:22.885Z,100614.80
2019-03-10T03:53:52.331Z,100600.33
2019-03-10T03:56:21.821Z,100591.59
2019-03-10T03:58:51.254Z,100590.14
2019-03-10T04:01:34.215Z,100597.48
2019-03-10T04:04:03.685Z,100580.19
2019-03-10T04:06:33.176Z,100568.02
2019-03-10T04:09:02.612Z,100558.28
2019-03-10T04:11:32.020Z,100559.55
2019-03-10T04:14:01.483Z,100564.20
2019-03-10T04:16:31.027Z,100572.75
2019-03-10T04:19:00.440Z,100555.93
2019-03-10T04:21:30.204Z,100533.45
2019-03-10T04:23:59.614Z,100513.98
2019-03-10T04:26:29.231Z,100511.48
2019-03-10T04:28:58.731Z,100509.98
2019-03-10T04:31:28.139Z,100502.67
2019-03-10T04:33:57.559Z,100490.42
2019-03-10T04:36:27.296Z,100486.08
2019-03-10T04:38:56.739Z,100473.16
2019-03-10T04:41:26.153Z,100472.09
2019-03-10T04:43:55.563Z,100465.72
2019-03-10T04:46:25.003Z,100463.03
2019-03-10T04:48:54.435Z,100458.19
2019-03-10T04:51:23.944Z,100448.30
2019-03-10T04:53:53.365Z,100444.78
2019-03-10T04:56:26.920Z,100429.84
2019-03-10T04:58:56.334Z,100419.46
2019-03-10T05:01:26.082Z,100417.03
2019-03-10T05:03:55.530Z,100411.19
2019-03-10T05:06:25.006Z,100396.08
2019-03-10T05:08:54.443Z,100382.62
2019-03-10T05:11:23.937Z,100378.73
2019-03-10T05:13:53.702Z,100380.53
2019-03-10T05:16:23.521Z,100370.09
2019-03-10T05:19:12.253Z,100361.66
2019-03-10T05:21:42.079Z,100364.48
2019-03-10T05:24:11.822Z,100345.92
2019-03-10T05:26:41.251Z,100336.36
2019-03-10T05:29:10.743Z,100330.27
2019-03-10T05:31:40.181Z,100324.25
2019-03-10T05:34:09.596Z,100321.17
2019-03-10T05:36:39.087Z,100316.95
2019-03-10T05:39:08.683Z,100309.97
2019-03-10T05:41:38.107Z,100307.11
2019-03-10T05:44:07.918Z,100302.41
2019-03-10T05:46:37.354Z,100301.69
2019-03-10T05:49:06.797Z,100297.43
2019-03-10T05:51:36.264Z,100288.94
2019-03-10T05:54:05.776Z,100289.02
2019-03-10T05:56:35.232Z,100286.27
2019-03-10T05:59:04.810Z,100273.05
2019-03-10T06:01:34.242Z,100277.10
2019-03-10T06:04:04.014Z,100273.59
2019-03-10T06:06:33.458Z,100261.49
2019-03-10T06:09:04.536Z,100262.15
2019-03-10T06:11:34.053Z,100268.66
2019-03-10T06:14:03.547Z,100260.62
2019-03-10T06:16:32.999Z,100258.89
2019-03-10T06:19:02.437Z,100252.47
2019-03-10T06:21:31.893Z,100264.83
2019-03-10T06:24:01.327Z,100261.06
2019-03-10T06:26:30.756Z,100259.75
2019-03-10T06:29:00.200Z,100259.72
2019-03-10T06:31:29.631Z,100257.27
2019-03-10T06:33:59.062Z,100258.48
2019-03-10T06:36:28.525Z,100249.70
2019-03-10T06:38:57.959Z,100252.42
2019-03-10T06:41:27.385Z,100245.08
2019-03-10T06:43:56.834Z,100247.17
2019-03-10T06:46:26.265Z,100247.89
2019-03-10T06:48:56.068Z,100247.27
2019-03-10T06:51:25.539Z,100237.31
2019-03-10T06:53:54.949Z,100237.99
2019-03-10T06:56:24.380Z,100238.34
2019-03-10T06:58:53.823Z,100238.19
2019-03-10T07:01:23.261Z,100231.03
2019-03-10T07:03:52.755Z,100232.88
2019-03-10T07:06:22.175Z,100236.74
2019-03-10T07:08:51.599Z,100243.54
2019-03-10T07:11:21.033Z,100236.14
2019-03-10T07:13:50.542Z,100235.81
2019-03-10T07:16:20.004Z,100222.23
2019-03-10T07:18:49.414Z,100220.09
2019-03-10T07:21:18.849Z,100229.35
2019-03-10T07:23:48.399Z,100220.25
2019-03-10T07:26:19.578Z,100226.13
2019-03-10T07:28:53.246Z,100229.22
2019-03-10T07:31:26.770Z,100231.47
2019-03-10T07:34:03.406Z,100235.23
2019-03-10T07:36:43.632Z,100227.20
2019-03-10T07:39:20.957Z,100222.96
2019-03-10T07:41:52.359Z,100220.38
2019-03-10T07:44:26.473Z,100223.19
2019-03-10T07:47:06.414Z,100212.61
2019-03-10T07:49:37.600Z,100205.03
2019-03-10T07:52:16.572Z,100222.84
2019-03-10T07:54:47.225Z,100225.95
2019-03-10T07:57:18.300Z,100222.59
2019-03-10T07:59:49.368Z,100216.42
2019-03-10T08:02:32.545Z,100208.95
2019-03-10T08:05:19.755Z,100209.98
2019-03-10T08:08:07.152Z,100219.53
2019-03-10T08:10:38.231Z,100195.67
2019-03-10T08:13:09.295Z,100205.49
2019-03-10T08:15:40.672Z,100203.25
2019-03-10T08:18:12.122Z,100196.89
2019-03-10T08:20:49.042Z,100198.38
2019-03-10T08:23:23.077Z,100201.46
2019-03-10T08:25:54.244Z,100207.20
2019-03-10T08:28:28.448Z,100208.02
2019-03-10T08:31:15.887Z,100192.81
2019-03-10T08:34:02.869Z,100186.77
2019-03-10T08:36:33.942Z,100175.53
2019-03-10T08:39:20.086Z,100169.04
2019-03-10T08:41:53.801Z,100184.41
2019-03-10T08:44:27.680Z,100170.20
2019-03-10T08:47:04.393Z,100175.87
2019-03-10T08:49:53.794Z,100173.92
2019-03-10T08:52:27.649Z,100167.53
2019-03-10T08:55:01.187Z,100175.83
2019-03-10T08:57:35.297Z,100170.95
2019-03-10T09:00:10.799Z,100154.63
2019-03-10T09:02:42.273Z,100159.06
2019-03-10T09:05:13.406Z,100159.37
2019-03-10T09:07:56.496Z,100157.59
2019-03-10T09:10:27.591Z,100142.86
2019-03-10T09:12:58.730Z,100147.28
2019-03-10T09:15:30.017Z,100130.14
2019-03-10T09:18:19.450Z,100143.67
2019-03-10T09:21:08.826Z,100143.00
2019-03-10T09:23:39.903Z,100149.25
2019-03-10T09:26:11.004Z,100143.19
2019-03-10T09:28:58.201Z,100149.36
2019-03-10T09:31:29.290Z,100146.09
2019-03-10T09:34:00.438Z,100144.64
2019-03-10T09:36:31.597Z,100159.61
2019-03-10T09:39:02.954Z,100156.86
2019-03-10T09:41:34.079Z,100151.80
2019-03-10T09:44:17.408Z,100163.23
2019-03-10T09:46:48.513Z,100146.59
2019-03-10T09:49:25.516Z,100159.96
2019-03-10T09:52:05.311Z,100147.86
2019-03-10T09:54:48.846Z,100137.24
2019-03-10T09:57:22.824Z,100157.34
2019-03-10T10:00:00.494Z,100162.55
2019-03-10T10:02:31.777Z,100170.17
2019-03-10T10:05:08.821Z,100156.80
2019-03-10T10:07:48.991Z,100172.97
2019-03-10T10:10:26.017Z,100185.50
2019-03-10T10:12:57.179Z,100220.64
2019-03-10T10:15:28.474Z,100181.14
2019-03-10T10:18:02.257Z,100184.19
2019-03-10T10:20:45.097Z,100200.54
2019-03-10T10:23:16.156Z,100195.39
2019-03-10T10:25:47.231Z,100197.65
2019-03-10T10:28:37.356Z,100194.08
2019-03-10T10:31:23.572Z,100194.90
2019-03-10T10:34:06.430Z,100205.53
2019-03-10T10:36:37.499Z,100203.55
2019-03-10T10:39:19.325Z,100217.77
2019-03-10T10:42:02.401Z,100217.94
2019-03-10T10:44:33.505Z,100232.67
2019-03-10T10:47:16.525Z,100251.96
2019-03-10T10:49:53.196Z,100244.73
2019-03-10T10:52:30.160Z,100253.11
2019-03-10T10:55:13.429Z,100258.56
2019-03-10T10:57:44.922Z,100261.41
2019-03-10T11:00:34.447Z,100254.67
2019-03-10T11:03:05.568Z,100264.97
2019-03-10T11:05:53.134Z,100260.11
2019-03-10T11:08:29.905Z,100277.62
2019-03-10T11:11:01.164Z,100293.33
2019-03-10T11:13:32.392Z,100305.41
2019-03-10T11:16:03.465Z,100324.60
2019-03-10T11:18:37.417Z,100338.35
2019-03-10T11:21:17.552Z,100307.14
2019-03-10T11:23:48.740Z,100351.80
2019-03-10T11:26:19.866Z,100339.22
2019-03-10T11:28:56.696Z,100351.98
2019-03-10T11:31:30.317Z,100366.55
2019-03-10T11:34:01.520Z,100367.55
2019-03-10T11:36:47.305Z,100362.54
2019-03-10T11:39:21.329Z,100397.75
2019-03-10T17:23:40.028Z,101427.63
2019-03-10T17:26:09.451Z,101424.35
2019-03-10T17:28:38.886Z,101430.20
2019-03-10T17:31:14.390Z,101431.23
2019-03-10T17:33:44.166Z,101440.97
2019-03-10T17:36:13.653Z,101441.98
2019-03-10T17:38:43.469Z,101451.47
2019-03-10T17:41:12.907Z,101440.12
2019-03-10T17:43:42.310Z,101455.16
2019-03-10T17:46:11.878Z,101461.95
2019-03-10T17:48:41.296Z,101474.05
2019-03-10T17:51:10.749Z,101481.37
2019-03-10T17:53:41.975Z,101480.27
2019-03-10T17:56:11.294Z,101490.21
2019-03-10T17:58:40.765Z,101490.06
2019-03-10T18:01:10.628Z,101493.59
2019-03-10T18:03:40.175Z,101501.09
2019-03-10T18:06:09.565Z,101505.17
2019-03-10T18:08:39.019Z,101503.33
2019-03-10T18:11:08.438Z,101511.39
2019-03-10T18:13:37.951Z,101513.34
2019-03-10T18:16:07.490Z,101519.84
2019-03-10T18:18:36.926Z,101527.17
2019-03-10T18:21:06.355Z,101542.28
2019-03-10T18:23:35.763Z,101537.50
2019-03-10T18:26:05.330Z,101541.06
2019-03-10T18:28:42.352Z,101538.75
2019-03-10T18:31:11.832Z,101548.06
2019-03-10T18:33:41.232Z,101541.44
2019-03-10T18:36:10.643Z,101556.86
2019-03-10T18:38:40.062Z,101561.67
2019-03-10T18:41:09.510Z,101561.93
2019-03-10T18:43:58.232Z,101556.91
2019-03-10T18:46:27.657Z,101562.05
2019-03-10T18:48:57.064Z,101570.27
2019-03-10T18:51:26.502Z,101575.31
2019-03-10T18:53:55.968Z,101575.59
2019-03-10T18:56:44.750Z,101584.16
2019-03-10T18:59:14.253Z,101572.13
2019-03-10T19:01:43.761Z,101575.34
2019-03-10T19:04:13.221Z,101584.66
2019-03-10T19:06:42.644Z,101577.28
2019-03-10T19:09:12.553Z,101594.37
2019-03-10T19:11:42.369Z,101585.75
2019-03-10T19:14:12.047Z,101590.78
2019-03-10T19:16:41.487Z,101590.52
2019-03-10T19:19:10.942Z,101585.25
2019-03-10T19:21:40.395Z,101596.97
2019-03-10T19:24:10.176Z,101589.91
2019-03-10T19:26:39.586Z,101590.88
2019-03-10T19:29:09.395Z,101598.88
2019-03-10T19:31:38.780Z,101594.19
2019-03-10T19:34:08.345Z,101604.42
2019-03-10T19:36:37.740Z,101597.77
2019-03-10T19:39:07.739Z,101594.78
2019-03-10T19:41:37.167Z,101604.93
2019-03-10T19:44:06.542Z,101602.95
2019-03-10T19:46:36.064Z,101610.23
2019-03-10T19:49:05.684Z,101608.94
2019-03-10T19:51:35.110Z,101610.64
2019-03-10T19:54:04.703Z,101615.42
2019-03-10T19:56:34.124Z,101617.39
2019-03-10T19:59:03.576Z,101618.20
2019-03-10T20:01:32.995Z,101617.97
2019-03-10T20:04:02.412Z,101613.20
2019-03-10T20:06:31.856Z,101617.33
2019-03-10T20:09:01.645Z,101624.27
2019-03-10T20:11:31.213Z,101618.41
2019-03-10T20:14:00.612Z,101626.61
2019-03-10T20:16:30.080Z,101621.36
2019-03-10T20:18:59.489Z,101623.24
2019-03-10T20:21:28.896Z,101629.03
2019-03-10T20:23:58.325Z,101632.93
2019-03-10T20:26:27.761Z,101624.83
2019-03-10T20:28:57.222Z,101628.03
2019-03-10T20:31:26.632Z,101628.89
2019-03-10T20:33:56.074Z,101625.86
2019-03-10T20:36:25.493Z,101636.04
2019-03-10T20:38:54.905Z,101634.58
2019-03-10T20:41:24.352Z,101627.03
2019-03-10T20:43:53.769Z,101639.22
2019-03-10T20:46:23.188Z,101631.47
2019-03-10T20:48:52.622Z,101629.88
2019-03-10T20:51:41.479Z,101632.61
2019-03-10T20:54:10.913Z,101638.46
2019-03-10T20:56:40.305Z,101634.20
2019-03-10T20:59:09.761Z,101636.79
2019-03-10T21:01:39.199Z,101628.41
2019-03-10T21:04:08.638Z,101625.52
2019-03-10T21:06:38.142Z,101620.33
2019-03-10T21:09:08.102Z,101617.47
2019-03-10T21:11:37.552Z,101613.05
2019-03-10T21:14:06.960Z,101599.84
2019-03-10T21:16:36.373Z,101601.92
2019-03-10T21:19:05.979Z,101598.31
2019-03-10T21:21:35.391Z,101582.21
2019-03-10T21:24:04.992Z,101578.63
2019-03-10T21:26:34.415Z,101582.59
2019-03-10T21:29:04.285Z,101588.30
2019-03-10T21:31:33.697Z,101581.73
2019-03-10T21:34:03.208Z,101575.33
2019-03-10T21:36:32.646Z,101567.77
2019-03-10T21:39:02.064Z,101567.17
2019-03-10T21:41:31.528Z,101575.45
2019-03-10T21:44:00.948Z,101572.06
2019-03-10T21:46:30.362Z,101567.14
2019-03-10T21:48:59.876Z,101552.78
2019-03-10T21:51:29.269Z,101557.58
2019-03-10T21:53:58.710Z,101565.33
2019-03-10T21:56:28.309Z,101570.60
2019-03-10T21:58:57.728Z,101601.58
2019-03-10T22:01:27.187Z,101636.38
2019-03-10T22:03:56.608Z,101676.78
2019-03-10T22:06:28.156Z,101691.77
2019-03-10T22:08:57.570Z,101684.30
2019-03-10T22:11:26.983Z,101667.17
2019-03-10T22:13:56.407Z,101675.39
2019-03-10T22:16:25.826Z,101673.07
2019-03-10T22:18:55.253Z,101667.06
2019-03-10T22:21:25.072Z,101663.97
2019-03-10T22:23:59.196Z,101664.78
2019-03-10T22:26:26.111Z,101654.55
2019-03-10T22:28:55.704Z,101653.27
2019-03-10T22:31:25.216Z,101653.97
2019-03-10T22:33:54.646Z,101656.61
2019-03-10T22:36:24.078Z,101653.71
2019-03-10T22:38:53.503Z,101656.23
2019-03-10T22:41:23.206Z,101653.25
2019-03-10T22:43:52.708Z,101650.53
2019-03-10T22:46:22.153Z,101642.22
2019-03-10T22:48:51.590Z,101637.58
2019-03-10T22:51:21.091Z,101637.17
2019-03-10T22:53:50.590Z,101641.83
2019-03-10T22:56:20.376Z,101643.02
2019-03-10T22:58:49.809Z,101635.20
2019-03-10T23:01:19.647Z,101632.30
2019-03-10T23:03:49.095Z,101632.14
2019-03-10T23:06:18.530Z,101628.36
2019-03-10T23:08:48.374Z,101625.09
2019-03-10T23:11:17.777Z,101621.37
2019-03-10T23:13:47.212Z,101610.06
2019-03-10T23:16:16.651Z,101612.82
2019-03-10T23:18:46.145Z,101624.78
2019-03-10T23:21:15.580Z,101622.81
2019-03-10T23:23:44.949Z,101630.41
2019-03-10T23:26:14.415Z,101632.12
2019-03-10T23:28:43.845Z,101631.42
2019-03-10T23:31:32.633Z,101634.51
2019-03-10T23:34:02.051Z,101632.75
2019-03-10T23:36:31.460Z,101635.83
2019-03-10T23:39:00.914Z,101644.88
2019-03-10T23:41:30.449Z,101644.27
2019-03-10T23:43:59.844Z,101635.02
2019-03-10T23:46:29.365Z,101623.89
2019-03-10T23:48:58.762Z,101623.65
2019-03-10T23:51:28.207Z,101622.20
2019-03-10T23:53:57.607Z,101622.48
2019-03-10T23:56:27.042Z,101613.87
2019-03-10T23:58:56.468Z,101610.10
